sensor_id;sensor_type;location;lat;lon;timestamp;temperature;humidity
21271;DHT22;10795;50.796;3.860;2022-10-31T00:02:10;13.30;99.90
21271;DHT22;10795;50.796;3.860;2022-10-31T00:04:36;13.20;99.90
21271;DHT22;10795;50.796;3.860;2022-10-31T00:07:02;13.10;99.90
21271;DHT22;10795;50.796;3.860;2022-10-31T00:09:27;13.00;99.90
21271;DHT22;10795;50.796;3.860;2022-10-31T00:11:53;13.00;99.90
21271;DHT22;10795;50.796;3.860;2022-10-31T00:14:19;13.00;99.90
21271;DHT22;10795;50.796;3.860;2022-10-31T00:16:44;13.10;99.90
21271;DHT22;10795;50.796;3.860;2022-10-31T00:19:10;13.00;99.90
21271;DHT22;10795;50.796;3.860;2022-10-31T00:21:36;13.00;99.90
21271;DHT22;10795;50.796;3.860;2022-10-31T00:24:02;12.90;99.90
21271;DHT22;10795;50.796;3.860;2022-10-31T00:26:29;13.00;99.90
21271;DHT22;10795;50.796;3.860;2022-10-31T00:28:56;13.10;99.90
21271;DHT22;10795;50.796;3.860;2022-10-31T00:31:22;13.10;99.90
21271;DHT22;10795;50.796;3.860;2022-10-31T00:33:49;13.20;99.90
21271;DHT22;10795;50.796;3.860;2022-10-31T00:36:18;13.20;99.90
21271;DHT22;10795;50.796;3.860;2022-10-31T00:38:45;12.90;99.90
21271;DHT22;10795;50.796;3.860;2022-10-31T00:41:12;12.70;99.90
21271;DHT22;10795;50.796;3.860;2022-10-31T00:43:41;12.50;99.90
21271;DHT22;10795;50.796;3.860;2022-10-31T00:46:06;12.40;99.90
21271;DHT22;10795;50.796;3.860;2022-10-31T00:48:32;12.40;99.90
21271;DHT22;10795;50.796;3.860;2022-10-31T00:50:58;12.40;99.90
21271;DHT22;10795;50.796;3.860;2022-10-31T00:53:24;12.40;99.90
21271;DHT22;10795;50.796;3.860;2022-10-31T00:55:50;12.30;99.90
21271;DHT22;10795;50.796;3.860;2022-10-31T00:58:16;12.30;99.90
21271;DHT22;10795;50.796;3.860;2022-10-31T01:00:42;12.30;99.90
21271;DHT22;10795;50.796;3.860;2022-10-31T01:03:08;12.30;99.90
21271;DHT22;10795;50.796;3.860;2022-10-31T01:05:37;12.30;99.90
21271;DHT22;10795;50.796;3.860;2022-10-31T01:08:03;12.40;99.90
21271;DHT22;10795;50.796;3.860;2022-10-31T01:10:29;12.40;99.90
21271;DHT22;10795;50.796;3.860;2022-10-31T01:12:54;12.30;99.90
21271;DHT22;10795;50.796;3.860;2022-10-31T01:15:22;12.40;99.90
21271;DHT22;10795;50.796;3.860;2022-10-31T01:17:48;12.30;99.90
21271;DHT22;10795;50.796;3.860;2022-10-31T01:20:16;12.10;99.90
21271;DHT22;10795;50.796;3.860;2022-10-31T01:22:42;12.00;99.90
21271;DHT22;10795;50.796;3.860;2022-10-31T01:25:09;11.80;99.90
21271;DHT22;10795;50.796;3.860;2022-10-31T01:27:35;11.90;99.90
21271;DHT22;10795;50.796;3.860;2022-10-31T01:30:01;12.00;99.90
21271;DHT22;10795;50.796;3.860;2022-10-31T01:32:27;12.00;99.90
21271;DHT22;10795;50.796;3.860;2022-10-31T01:34:54;12.10;99.90
21271;DHT22;10795;50.796;3.860;2022-10-31T01:37:20;12.10;99.90
21271;DHT22;10795;50.796;3.860;2022-10-31T01:39:48;12.10;99.90
21271;DHT22;10795;50.796;3.860;2022-10-31T01:42:20;12.10;99.90
21271;DHT22;10795;50.796;3.860;2022-10-31T01:44:55;12.20;99.90
21271;DHT22;10795;50.796;3.860;2022-10-31T01:47:37;12.20;99.90
21271;DHT22;10795;50.796;3.860;2022-10-31T01:50:11;12.20;99.90
21271;DHT22;10795;50.796;3.860;2022-10-31T01:52:39;12.00;99.90
21271;DHT22;10795;50.796;3.860;2022-10-31T01:55:13;11.80;99.90
21271;DHT22;10795;50.796;3.860;2022-10-31T01:57:45;11.70;99.90
21271;DHT22;10795;50.796;3.860;2022-10-31T02:00:12;11.70;99.90
21271;DHT22;10795;50.796;3.860;2022-10-31T02:02:42;11.50;99.90
21271;DHT22;10795;50.796;3.860;2022-10-31T02:05:12;11.40;99.90
21271;DHT22;10795;50.796;3.860;2022-10-31T02:07:58;11.40;99.90
21271;DHT22;10795;50.796;3.860;2022-10-31T02:10:31;11.40;99.90
21271;DHT22;10795;50.796;3.860;2022-10-31T02:12:58;11.50;99.90
21271;DHT22;10795;50.796;3.860;2022-10-31T02:15:25;11.40;99.90
21271;DHT22;10795;50.796;3.860;2022-10-31T02:17:52;11.50;99.90
21271;DHT22;10795;50.796;3.860;2022-10-31T02:20:20;11.60;99.90
21271;DHT22;10795;50.796;3.860;2022-10-31T02:33:59;11.20;99.90
21271;DHT22;10795;50.796;3.860;2022-10-31T02:39:00;11.10;99.90
21271;DHT22;10795;50.796;3.860;2022-10-31T02:45:14;10.70;99.90
21271;DHT22;10795;50.796;3.860;2022-10-31T02:47:46;10.70;99.90
21271;DHT22;10795;50.796;3.860;2022-10-31T02:50:23;10.60;99.90
21271;DHT22;10795;50.796;3.860;2022-10-31T02:52:52;10.50;99.90
21271;DHT22;10795;50.796;3.860;2022-10-31T03:00:25;10.40;99.90
21271;DHT22;10795;50.796;3.860;2022-10-31T03:11:07;10.50;99.90
21271;DHT22;10795;50.796;3.860;2022-10-31T03:13:47;10.60;99.90
21271;DHT22;10795;50.796;3.860;2022-10-31T03:18:58;10.50;99.90
21271;DHT22;10795;50.796;3.860;2022-10-31T03:21:34;10.40;99.90
21271;DHT22;10795;50.796;3.860;2022-10-31T03:24:02;10.50;99.90
21271;DHT22;10795;50.796;3.860;2022-10-31T03:26:30;10.30;99.90
21271;DHT22;10795;50.796;3.860;2022-10-31T03:29:02;10.30;99.90
21271;DHT22;10795;50.796;3.860;2022-10-31T03:31:51;10.40;99.90
21271;DHT22;10795;50.796;3.860;2022-10-31T03:34:20;10.50;99.90
21271;DHT22;10795;50.796;3.860;2022-10-31T03:36:49;10.60;99.90
21271;DHT22;10795;50.796;3.860;2022-10-31T03:39:18;10.40;99.90
21271;DHT22;10795;50.796;3.860;2022-10-31T03:41:57;10.20;99.90
21271;DHT22;10795;50.796;3.860;2022-10-31T03:44:27;10.10;99.90
21271;DHT22;10795;50.796;3.860;2022-10-31T03:46:59;9.90;99.90
21271;DHT22;10795;50.796;3.860;2022-10-31T03:49:25;9.80;99.90
21271;DHT22;10795;50.796;3.860;2022-10-31T03:52:07;10.30;99.90
21271;DHT22;10795;50.796;3.860;2022-10-31T03:54:46;10.00;99.90
21271;DHT22;10795;50.796;3.860;2022-10-31T03:59:53;10.00;99.90
21271;DHT22;10795;50.796;3.860;2022-10-31T04:02:26;9.90;99.90
21271;DHT22;10795;50.796;3.860;2022-10-31T04:04:54;10.00;99.90
21271;DHT22;10795;50.796;3.860;2022-10-31T04:07:22;9.90;99.90
21271;DHT22;10795;50.796;3.860;2022-10-31T04:09:51;9.90;99.90
21271;DHT22;10795;50.796;3.860;2022-10-31T04:12:20;9.90;99.90
21271;DHT22;10795;50.796;3.860;2022-10-31T04:15:14;9.80;99.90
21271;DHT22;10795;50.796;3.860;2022-10-31T04:17:41;9.70;99.90
21271;DHT22;10795;50.796;3.860;2022-10-31T04:20:09;9.50;99.90
21271;DHT22;10795;50.796;3.860;2022-10-31T04:22:34;9.40;99.90
21271;DHT22;10795;50.796;3.860;2022-10-31T04:25:00;9.40;99.90
21271;DHT22;10795;50.796;3.860;2022-10-31T04:27:26;9.50;99.90
21271;DHT22;10795;50.796;3.860;2022-10-31T04:29:52;9.40;99.90
21271;DHT22;10795;50.796;3.860;2022-10-31T04:32:17;9.50;99.90
21271;DHT22;10795;50.796;3.860;2022-10-31T04:34:43;9.70;99.90
21271;DHT22;10795;50.796;3.860;2022-10-31T04:37:10;9.60;99.90
21271;DHT22;10795;50.796;3.860;2022-10-31T04:39:36;9.50;99.90
21271;DHT22;10795;50.796;3.860;2022-10-31T04:42:24;9.50;99.90
21271;DHT22;10795;50.796;3.860;2022-10-31T04:44:50;9.30;99.90
21271;DHT22;10795;50.796;3.860;2022-10-31T04:47:16;9.30;99.90
21271;DHT22;10795;50.796;3.860;2022-10-31T04:49:43;9.10;99.90
21271;DHT22;10795;50.796;3.860;2022-10-31T04:52:10;9.00;99.90
21271;DHT22;10795;50.796;3.860;2022-10-31T04:54:36;9.10;99.90
21271;DHT22;10795;50.796;3.860;2022-10-31T04:57:24;9.20;99.90
21271;DHT22;10795;50.796;3.860;2022-10-31T04:59:50;9.20;99.90
21271;DHT22;10795;50.796;3.860;2022-10-31T05:02:16;9.10;99.90
21271;DHT22;10795;50.796;3.860;2022-10-31T05:04:46;9.10;99.90
21271;DHT22;10795;50.796;3.860;2022-10-31T05:07:12;9.10;99.90
21271;DHT22;10795;50.796;3.860;2022-10-31T05:09:38;9.20;99.90
21271;DHT22;10795;50.796;3.860;2022-10-31T05:12:03;9.40;99.90
21271;DHT22;10795;50.796;3.860;2022-10-31T05:14:52;9.20;99.90
21271;DHT22;10795;50.796;3.860;2022-10-31T05:17:36;9.20;99.90
21271;DHT22;10795;50.796;3.860;2022-10-31T05:20:22;9.10;99.90
21271;DHT22;10795;50.796;3.860;2022-10-31T05:23:23;9.10;99.90
21271;DHT22;10795;50.796;3.860;2022-10-31T05:25:49;9.30;99.90
21271;DHT22;10795;50.796;3.860;2022-10-31T05:28:16;9.40;99.90
21271;DHT22;10795;50.796;3.860;2022-10-31T05:30:42;9.50;99.90
21271;DHT22;10795;50.796;3.860;2022-10-31T05:33:11;9.40;99.90
21271;DHT22;10795;50.796;3.860;2022-10-31T05:35:40;9.70;99.90
21271;DHT22;10795;50.796;3.860;2022-10-31T05:38:25;9.60;99.90
21271;DHT22;10795;50.796;3.860;2022-10-31T05:40:56;9.60;99.90
21271;DHT22;10795;50.796;3.860;2022-10-31T05:43:30;9.50;99.90
21271;DHT22;10795;50.796;3.860;2022-10-31T05:45:56;9.50;99.90
21271;DHT22;10795;50.796;3.860;2022-10-31T05:48:42;9.60;99.90
21271;DHT22;10795;50.796;3.860;2022-10-31T05:51:43;9.60;99.90
21271;DHT22;10795;50.796;3.860;2022-10-31T05:54:09;9.60;99.90
21271;DHT22;10795;50.796;3.860;2022-10-31T05:56:37;9.60;99.90
21271;DHT22;10795;50.796;3.860;2022-10-31T05:59:03;9.60;99.90
21271;DHT22;10795;50.796;3.860;2022-10-31T06:01:30;9.60;99.90
21271;DHT22;10795;50.796;3.860;2022-10-31T06:04:02;9.50;99.90
21271;DHT22;10795;50.796;3.860;2022-10-31T06:06:30;9.40;99.90
21271;DHT22;10795;50.796;3.860;2022-10-31T06:08:57;9.50;99.90
21271;DHT22;10795;50.796;3.860;2022-10-31T06:11:24;9.50;99.90
21271;DHT22;10795;50.796;3.860;2022-10-31T06:14:19;9.50;99.90
21271;DHT22;10795;50.796;3.860;2022-10-31T06:16:51;9.50;99.90
21271;DHT22;10795;50.796;3.860;2022-10-31T06:19:52;9.40;99.90
21271;DHT22;10795;50.796;3.860;2022-10-31T06:22:20;9.40;99.90
21271;DHT22;10795;50.796;3.860;2022-10-31T06:24:47;9.40;99.90
21271;DHT22;10795;50.796;3.860;2022-10-31T06:27:38;9.30;99.90
21271;DHT22;10795;50.796;3.860;2022-10-31T06:30:10;9.50;99.90
21271;DHT22;10795;50.796;3.860;2022-10-31T06:32:36;9.70;99.90
21271;DHT22;10795;50.796;3.860;2022-10-31T06:35:02;9.80;99.90
21271;DHT22;10795;50.796;3.860;2022-10-31T06:37:28;9.90;99.90
21271;DHT22;10795;50.796;3.860;2022-10-31T06:40:01;9.80;99.90
21271;DHT22;10795;50.796;3.860;2022-10-31T06:42:26;10.00;99.90
21271;DHT22;10795;50.796;3.860;2022-10-31T06:44:52;10.00;99.90
21271;DHT22;10795;50.796;3.860;2022-10-31T06:47:50;10.00;99.90
21271;DHT22;10795;50.796;3.860;2022-10-31T06:50:24;10.10;99.90
21271;DHT22;10795;50.796;3.860;2022-10-31T06:52:56;10.00;99.90
21271;DHT22;10795;50.796;3.860;2022-10-31T06:55:23;10.00;99.90
21271;DHT22;10795;50.796;3.860;2022-10-31T06:57:53;10.00;99.90
21271;DHT22;10795;50.796;3.860;2022-10-31T07:00:20;10.10;99.90
21271;DHT22;10795;50.796;3.860;2022-10-31T07:03:04;10.20;99.90
21271;DHT22;10795;50.796;3.860;2022-10-31T07:05:30;10.20;99.90
21271;DHT22;10795;50.796;3.860;2022-10-31T07:08:00;10.10;99.90
21271;DHT22;10795;50.796;3.860;2022-10-31T07:10:28;10.20;99.90
21271;DHT22;10795;50.796;3.860;2022-10-31T07:13:01;10.20;99.90
21271;DHT22;10795;50.796;3.860;2022-10-31T07:15:32;10.30;99.90
21271;DHT22;10795;50.796;3.860;2022-10-31T07:18:03;10.40;99.90
21271;DHT22;10795;50.796;3.860;2022-10-31T07:20:30;10.40;99.90
21271;DHT22;10795;50.796;3.860;2022-10-31T07:22:57;10.40;99.90
21271;DHT22;10795;50.796;3.860;2022-10-31T07:25:24;10.50;99.90
21271;DHT22;10795;50.796;3.860;2022-10-31T07:28:06;10.50;99.90
21271;DHT22;10795;50.796;3.860;2022-10-31T07:30:32;10.50;99.90
21271;DHT22;10795;50.796;3.860;2022-10-31T07:32:59;10.60;99.90
21271;DHT22;10795;50.796;3.860;2022-10-31T07:35:40;10.70;99.90
21271;DHT22;10795;50.796;3.860;2022-10-31T07:38:10;10.70;99.90
21271;DHT22;10795;50.796;3.860;2022-10-31T07:40:37;10.70;99.90
21271;DHT22;10795;50.796;3.860;2022-10-31T07:43:03;10.70;99.90
21271;DHT22;10795;50.796;3.860;2022-10-31T07:45:54;10.70;99.90
21271;DHT22;10795;50.796;3.860;2022-10-31T07:48:55;10.70;99.90
21271;DHT22;10795;50.796;3.860;2022-10-31T07:51:39;10.80;99.90
21271;DHT22;10795;50.796;3.860;2022-10-31T07:54:23;10.90;99.90
21271;DHT22;10795;50.796;3.860;2022-10-31T07:56:48;11.00;99.90
21271;DHT22;10795;50.796;3.860;2022-10-31T07:59:14;11.10;99.90
21271;DHT22;10795;50.796;3.860;2022-10-31T08:01:40;11.10;99.90
21271;DHT22;10795;50.796;3.860;2022-10-31T08:04:26;11.10;99.90
21271;DHT22;10795;50.796;3.860;2022-10-31T08:07:10;11.20;99.90
21271;DHT22;10795;50.796;3.860;2022-10-31T08:09:39;11.20;99.90
21271;DHT22;10795;50.796;3.860;2022-10-31T08:12:16;11.20;99.90
21271;DHT22;10795;50.796;3.860;2022-10-31T08:14:41;11.20;99.90
21271;DHT22;10795;50.796;3.860;2022-10-31T08:17:07;11.30;99.90
21271;DHT22;10795;50.796;3.860;2022-10-31T08:19:42;11.30;99.90
21271;DHT22;10795;50.796;3.860;2022-10-31T08:22:11;11.20;99.90
21271;DHT22;10795;50.796;3.860;2022-10-31T08:24:37;11.20;99.90
21271;DHT22;10795;50.796;3.860;2022-10-31T08:27:03;11.20;99.90
21271;DHT22;10795;50.796;3.860;2022-10-31T08:29:29;11.30;99.90
21271;DHT22;10795;50.796;3.860;2022-10-31T08:31:57;11.40;99.90
21271;DHT22;10795;50.796;3.860;2022-10-31T08:34:42;11.50;99.90
21271;DHT22;10795;50.796;3.860;2022-10-31T08:37:26;11.60;99.90
21271;DHT22;10795;50.796;3.860;2022-10-31T08:39:54;11.70;99.90
21271;DHT22;10795;50.796;3.860;2022-10-31T08:42:20;11.60;99.90
21271;DHT22;10795;50.796;3.860;2022-10-31T08:44:46;11.60;99.90
21271;DHT22;10795;50.796;3.860;2022-10-31T08:47:12;11.80;99.90
21271;DHT22;10795;50.796;3.860;2022-10-31T08:49:38;11.90;99.90
21271;DHT22;10795;50.796;3.860;2022-10-31T08:52:04;12.00;99.90
21271;DHT22;10795;50.796;3.860;2022-10-31T08:54:34;12.30;99.90
21271;DHT22;10795;50.796;3.860;2022-10-31T08:57:23;12.50;99.90
21271;DHT22;10795;50.796;3.860;2022-10-31T08:59:49;12.30;99.90
21271;DHT22;10795;50.796;3.860;2022-10-31T09:02:23;12.20;99.90
21271;DHT22;10795;50.796;3.860;2022-10-31T09:04:52;12.10;99.90
21271;DHT22;10795;50.796;3.860;2022-10-31T09:07:18;12.10;99.90
21271;DHT22;10795;50.796;3.860;2022-10-31T09:09:44;12.10;99.90
21271;DHT22;10795;50.796;3.860;2022-10-31T09:12:10;12.10;99.90
21271;DHT22;10795;50.796;3.860;2022-10-31T09:14:54;12.20;99.90
21271;DHT22;10795;50.796;3.860;2022-10-31T09:17:28;12.30;99.90
21271;DHT22;10795;50.796;3.860;2022-10-31T09:20:12;12.30;99.90
21271;DHT22;10795;50.796;3.860;2022-10-31T09:22:38;12.30;99.90
21271;DHT22;10795;50.796;3.860;2022-10-31T09:25:04;12.30;99.90
21271;DHT22;10795;50.796;3.860;2022-10-31T09:27:30;12.40;99.90
21271;DHT22;10795;50.796;3.860;2022-10-31T09:29:58;12.40;99.90
21271;DHT22;10795;50.796;3.860;2022-10-31T09:32:25;12.40;99.90
21271;DHT22;10795;50.796;3.860;2022-10-31T09:34:51;12.50;99.90
21271;DHT22;10795;50.796;3.860;2022-10-31T09:37:19;12.50;99.90
21271;DHT22;10795;50.796;3.860;2022-10-31T09:39:45;12.60;99.90
21271;DHT22;10795;50.796;3.860;2022-10-31T09:51:50;12.90;99.90
21271;DHT22;10795;50.796;3.860;2022-10-31T09:54:53;13.10;99.90
21271;DHT22;10795;50.796;3.860;2022-10-31T09:57:29;13.20;99.90
21271;DHT22;10795;50.796;3.860;2022-10-31T09:59:56;13.50;99.90
21271;DHT22;10795;50.796;3.860;2022-10-31T10:05:03;14.20;99.90
21271;DHT22;10795;50.796;3.860;2022-10-31T10:10:58;14.20;99.90
21271;DHT22;10795;50.796;3.860;2022-10-31T10:14:09;14.10;99.90
21271;DHT22;10795;50.796;3.860;2022-10-31T10:23:05;14.60;99.90
21271;DHT22;10795;50.796;3.860;2022-10-31T10:25:40;14.90;99.90
21271;DHT22;10795;50.796;3.860;2022-10-31T10:28:32;15.10;99.90
21271;DHT22;10795;50.796;3.860;2022-10-31T10:31:10;15.20;99.90
21271;DHT22;10795;50.796;3.860;2022-10-31T10:36:45;15.20;99.90
21271;DHT22;10795;50.796;3.860;2022-10-31T10:39:20;15.00;99.90
21271;DHT22;10795;50.796;3.860;2022-10-31T10:41:48;15.30;99.90
21271;DHT22;10795;50.796;3.860;2022-10-31T10:44:42;15.40;99.90
21271;DHT22;10795;50.796;3.860;2022-10-31T10:47:36;15.40;99.90
21271;DHT22;10795;50.796;3.860;2022-10-31T10:50:18;15.40;99.90
21271;DHT22;10795;50.796;3.860;2022-10-31T10:55:42;15.40;99.90
21271;DHT22;10795;50.796;3.860;2022-10-31T10:58:10;15.40;99.90
21271;DHT22;10795;50.796;3.860;2022-10-31T11:00:40;15.30;99.90
21271;DHT22;10795;50.796;3.860;2022-10-31T11:03:06;15.30;99.90
21271;DHT22;10795;50.796;3.860;2022-10-31T11:05:47;15.40;99.90
21271;DHT22;10795;50.796;3.860;2022-10-31T11:11:40;15.70;99.90
21271;DHT22;10795;50.796;3.860;2022-10-31T11:13:49;15.70;99.90
21271;DHT22;10795;50.796;3.860;2022-10-31T11:16:46;15.80;99.90
21271;DHT22;10795;50.796;3.860;2022-10-31T11:19:17;15.80;99.90
21271;DHT22;10795;50.796;3.860;2022-10-31T11:21:45;15.70;99.90
21271;DHT22;10795;50.796;3.860;2022-10-31T11:26:37;15.80;99.90
21271;DHT22;10795;50.796;3.860;2022-10-31T11:29:05;15.90;99.90
21271;DHT22;10795;50.796;3.860;2022-10-31T11:31:36;15.90;99.90
21271;DHT22;10795;50.796;3.860;2022-10-31T11:34:05;15.90;99.90
21271;DHT22;10795;50.796;3.860;2022-10-31T11:36:34;15.90;99.90
21271;DHT22;10795;50.796;3.860;2022-10-31T11:39:03;16.00;99.90
21271;DHT22;10795;50.796;3.860;2022-10-31T11:41:34;16.00;99.90
21271;DHT22;10795;50.796;3.860;2022-10-31T11:44:02;16.10;99.90
21271;DHT22;10795;50.796;3.860;2022-10-31T11:46:40;16.20;99.90
21271;DHT22;10795;50.796;3.860;2022-10-31T11:49:19;16.30;99.90
21271;DHT22;10795;50.796;3.860;2022-10-31T11:51:52;16.20;99.90
21271;DHT22;10795;50.796;3.860;2022-10-31T11:54:28;16.10;99.90
21271;DHT22;10795;50.796;3.860;2022-10-31T11:56:55;16.30;99.90
21271;DHT22;10795;50.796;3.860;2022-10-31T11:59:27;16.40;99.90
21271;DHT22;10795;50.796;3.860;2022-10-31T12:01:55;16.30;99.90
21271;DHT22;10795;50.796;3.860;2022-10-31T12:04:50;16.40;99.90
21271;DHT22;10795;50.796;3.860;2022-10-31T12:07:17;16.50;99.90
21271;DHT22;10795;50.796;3.860;2022-10-31T12:09:42;16.50;99.90
21271;DHT22;10795;50.796;3.860;2022-10-31T12:18:00;16.60;99.90
21271;DHT22;10795;50.796;3.860;2022-10-31T12:36:10;16.90;99.90
21271;DHT22;10795;50.796;3.860;2022-10-31T12:41:46;16.90;99.90
21271;DHT22;10795;50.796;3.860;2022-10-31T12:47:06;17.10;99.90
21271;DHT22;10795;50.796;3.860;2022-10-31T12:54:54;17.80;99.90
21271;DHT22;10795;50.796;3.860;2022-10-31T13:00:04;17.90;99.90
21271;DHT22;10795;50.796;3.860;2022-10-31T13:05:42;18.30;99.90
21271;DHT22;10795;50.796;3.860;2022-10-31T13:13:27;18.50;99.90
21271;DHT22;10795;50.796;3.860;2022-10-31T13:16:13;18.60;99.90
21271;DHT22;10795;50.796;3.860;2022-10-31T13:19:17;18.60;99.90
21271;DHT22;10795;50.796;3.860;2022-10-31T13:22:04;18.80;99.90
21271;DHT22;10795;50.796;3.860;2022-10-31T13:27:22;18.90;99.90
21271;DHT22;10795;50.796;3.860;2022-10-31T13:30:03;19.00;99.90
21271;DHT22;10795;50.796;3.860;2022-10-31T13:32:39;19.10;99.90
21271;DHT22;10795;50.796;3.860;2022-10-31T13:35:26;19.30;99.90
21271;DHT22;10795;50.796;3.860;2022-10-31T13:38:11;19.30;99.90
21271;DHT22;10795;50.796;3.860;2022-10-31T13:48:59;19.70;99.90
21271;DHT22;10795;50.796;3.860;2022-10-31T13:51:33;19.70;99.90
21271;DHT22;10795;50.796;3.860;2022-10-31T13:54:34;19.80;99.90
21271;DHT22;10795;50.796;3.860;2022-10-31T13:57:00;20.00;99.90
21271;DHT22;10795;50.796;3.860;2022-10-31T13:59:28;20.00;99.90
21271;DHT22;10795;50.796;3.860;2022-10-31T14:01:58;20.10;99.90
21271;DHT22;10795;50.796;3.860;2022-10-31T14:04:36;20.10;99.90
21271;DHT22;10795;50.796;3.860;2022-10-31T14:07:11;20.20;99.90
21271;DHT22;10795;50.796;3.860;2022-10-31T14:12:39;20.00;99.90
21271;DHT22;10795;50.796;3.860;2022-10-31T14:15:18;19.90;99.90
21271;DHT22;10795;50.796;3.860;2022-10-31T14:18:04;20.00;99.90
21271;DHT22;10795;50.796;3.860;2022-10-31T14:20:34;20.10;99.90
21271;DHT22;10795;50.796;3.860;2022-10-31T14:26:30;20.00;99.90
21271;DHT22;10795;50.796;3.860;2022-10-31T14:34:37;20.00;99.90
21271;DHT22;10795;50.796;3.860;2022-10-31T14:37:28;19.90;99.90
21271;DHT22;10795;50.796;3.860;2022-10-31T14:40:24;19.90;99.90
21271;DHT22;10795;50.796;3.860;2022-10-31T14:50:54;19.70;99.90
21271;DHT22;10795;50.796;3.860;2022-10-31T14:53:34;19.80;99.90
21271;DHT22;10795;50.796;3.860;2022-10-31T14:56:01;19.70;99.90
21271;DHT22;10795;50.796;3.860;2022-10-31T14:58:46;19.60;99.90
21271;DHT22;10795;50.796;3.860;2022-10-31T15:01:28;19.40;99.90
21271;DHT22;10795;50.796;3.860;2022-10-31T15:03:59;19.50;99.90
21271;DHT22;10795;50.796;3.860;2022-10-31T15:06:35;19.40;99.90
21271;DHT22;10795;50.796;3.860;2022-10-31T15:09:24;19.20;99.90
21271;DHT22;10795;50.796;3.860;2022-10-31T15:11:50;19.10;99.90
21271;DHT22;10795;50.796;3.860;2022-10-31T15:14:27;19.10;99.90
21271;DHT22;10795;50.796;3.860;2022-10-31T15:16:55;19.30;99.90
21271;DHT22;10795;50.796;3.860;2022-10-31T15:19:25;19.10;99.90
21271;DHT22;10795;50.796;3.860;2022-10-31T15:21:53;18.80;99.90
21271;DHT22;10795;50.796;3.860;2022-10-31T15:24:20;18.70;99.90
21271;DHT22;10795;50.796;3.860;2022-10-31T15:26:51;18.80;99.90
21271;DHT22;10795;50.796;3.860;2022-10-31T15:29:24;18.70;99.90
21271;DHT22;10795;50.796;3.860;2022-10-31T15:31:57;18.60;99.90
21271;DHT22;10795;50.796;3.860;2022-10-31T15:34:36;18.40;99.90
21271;DHT22;10795;50.796;3.860;2022-10-31T15:37:03;18.70;99.90
21271;DHT22;10795;50.796;3.860;2022-10-31T15:39:29;18.70;99.90
21271;DHT22;10795;50.796;3.860;2022-10-31T15:42:01;18.40;99.90
21271;DHT22;10795;50.796;3.860;2022-10-31T15:44:30;18.30;99.90
21271;DHT22;10795;50.796;3.860;2022-10-31T15:47:23;18.40;99.90
21271;DHT22;10795;50.796;3.860;2022-10-31T15:49:56;18.20;99.90
21271;DHT22;10795;50.796;3.860;2022-10-31T15:52:35;18.10;99.90
21271;DHT22;10795;50.796;3.860;2022-10-31T15:55:15;18.20;99.90
21271;DHT22;10795;50.796;3.860;2022-10-31T15:57:52;18.20;99.90
21271;DHT22;10795;50.796;3.860;2022-10-31T16:00:29;18.10;99.90
21271;DHT22;10795;50.796;3.860;2022-10-31T16:05:49;18.20;99.90
21271;DHT22;10795;50.796;3.860;2022-10-31T16:08:44;18.10;99.90
21271;DHT22;10795;50.796;3.860;2022-10-31T16:13:55;17.60;99.90
21271;DHT22;10795;50.796;3.860;2022-10-31T16:16:22;17.50;99.90
21271;DHT22;10795;50.796;3.860;2022-10-31T16:18:50;17.60;99.90
21271;DHT22;10795;50.796;3.860;2022-10-31T16:21:24;17.90;99.90
21271;DHT22;10795;50.796;3.860;2022-10-31T16:23:55;17.70;99.90
21271;DHT22;10795;50.796;3.860;2022-10-31T16:26:23;17.70;99.90
21271;DHT22;10795;50.796;3.860;2022-10-31T16:28:55;17.70;99.90
21271;DHT22;10795;50.796;3.860;2022-10-31T16:31:29;17.80;99.90
21271;DHT22;10795;50.796;3.860;2022-10-31T16:34:04;18.00;99.90
21271;DHT22;10795;50.796;3.860;2022-10-31T16:36:31;17.80;99.90
21271;DHT22;10795;50.796;3.860;2022-10-31T16:38:58;17.90;99.90
21271;DHT22;10795;50.796;3.860;2022-10-31T16:41:24;18.10;99.90
21271;DHT22;10795;50.796;3.860;2022-10-31T16:43:51;18.10;99.90
21271;DHT22;10795;50.796;3.860;2022-10-31T16:46:27;17.90;99.90
21271;DHT22;10795;50.796;3.860;2022-10-31T16:48:53;17.50;99.90
21271;DHT22;10795;50.796;3.860;2022-10-31T16:51:20;17.30;99.90
21271;DHT22;10795;50.796;3.860;2022-10-31T16:53:46;17.20;99.90
21271;DHT22;10795;50.796;3.860;2022-10-31T16:56:18;17.20;99.90
21271;DHT22;10795;50.796;3.860;2022-10-31T16:58:47;17.20;99.90
21271;DHT22;10795;50.796;3.860;2022-10-31T17:01:13;17.30;99.90
21271;DHT22;10795;50.796;3.860;2022-10-31T17:03:39;17.10;99.90
21271;DHT22;10795;50.796;3.860;2022-10-31T17:06:05;16.90;99.90
21271;DHT22;10795;50.796;3.860;2022-10-31T17:08:31;16.90;99.90
21271;DHT22;10795;50.796;3.860;2022-10-31T17:10:58;16.90;99.90
21271;DHT22;10795;50.796;3.860;2022-10-31T17:13:29;16.80;99.90
21271;DHT22;10795;50.796;3.860;2022-10-31T17:15:59;16.70;99.90
21271;DHT22;10795;50.796;3.860;2022-10-31T17:18:25;16.80;99.90
21271;DHT22;10795;50.796;3.860;2022-10-31T17:20:55;16.60;99.90
21271;DHT22;10795;50.796;3.860;2022-10-31T17:23:22;16.60;99.90
21271;DHT22;10795;50.796;3.860;2022-10-31T17:25:48;16.60;99.90
21271;DHT22;10795;50.796;3.860;2022-10-31T17:28:17;16.60;99.90
21271;DHT22;10795;50.796;3.860;2022-10-31T17:30:45;16.50;99.90
21271;DHT22;10795;50.796;3.860;2022-10-31T17:33:15;16.40;99.90
21271;DHT22;10795;50.796;3.860;2022-10-31T17:35:44;16.40;99.90
21271;DHT22;10795;50.796;3.860;2022-10-31T17:38:12;16.30;99.90
21271;DHT22;10795;50.796;3.860;2022-10-31T17:40:41;16.30;99.90
21271;DHT22;10795;50.796;3.860;2022-10-31T17:43:10;16.40;99.90
21271;DHT22;10795;50.796;3.860;2022-10-31T17:45:42;16.30;99.90
21271;DHT22;10795;50.796;3.860;2022-10-31T17:48:24;16.30;99.90
21271;DHT22;10795;50.796;3.860;2022-10-31T17:50:52;16.20;99.90
21271;DHT22;10795;50.796;3.860;2022-10-31T17:53:18;16.20;99.90
21271;DHT22;10795;50.796;3.860;2022-10-31T17:55:44;16.30;99.90
21271;DHT22;10795;50.796;3.860;2022-10-31T17:58:10;16.30;99.90
21271;DHT22;10795;50.796;3.860;2022-10-31T18:00:39;16.40;99.90
21271;DHT22;10795;50.796;3.860;2022-10-31T18:03:10;16.40;99.90
21271;DHT22;10795;50.796;3.860;2022-10-31T18:05:36;16.30;99.90
21271;DHT22;10795;50.796;3.860;2022-10-31T18:08:05;16.40;99.90
21271;DHT22;10795;50.796;3.860;2022-10-31T18:10:31;16.50;99.90
21271;DHT22;10795;50.796;3.860;2022-10-31T18:12:56;16.40;99.90
21271;DHT22;10795;50.796;3.860;2022-10-31T18:15:22;16.30;99.90
21271;DHT22;10795;50.796;3.860;2022-10-31T18:17:51;16.30;99.90
21271;DHT22;10795;50.796;3.860;2022-10-31T18:20:17;16.30;99.90
21271;DHT22;10795;50.796;3.860;2022-10-31T18:22:42;16.30;99.90
21271;DHT22;10795;50.796;3.860;2022-10-31T18:25:11;16.20;99.90
21271;DHT22;10795;50.796;3.860;2022-10-31T18:27:37;16.20;99.90
21271;DHT22;10795;50.796;3.860;2022-10-31T18:30:03;16.30;99.90
21271;DHT22;10795;50.796;3.860;2022-10-31T18:32:29;16.10;99.90